sensor_id;sensor_type;location;lat;lon;timestamp;temperature;humidity
6986;DHT22;3533;51.246;6.850;2023-05-19T00:01:56;20.10;41.90
6986;DHT22;3533;51.246;6.850;2023-05-19T00:04:24;20.10;41.90
6986;DHT22;3533;51.246;6.850;2023-05-19T00:06:53;20.10;41.90
6986;DHT22;3533;51.246;6.850;2023-05-19T00:09:18;20.10;41.90
6986;DHT22;3533;51.246;6.850;2023-05-19T00:11:45;20.10;41.90
6986;DHT22;3533;51.246;6.850;2023-05-19T00:14:11;20.10;41.90
6986;DHT22;3533;51.246;6.850;2023-05-19T00:16:37;20.10;41.90
6986;DHT22;3533;51.246;6.850;2023-05-19T00:19:04;20.10;41.90
6986;DHT22;3533;51.246;6.850;2023-05-19T00:21:30;20.10;41.90
6986;DHT22;3533;51.246;6.850;2023-05-19T00:23:57;20.10;42.00
6986;DHT22;3533;51.246;6.850;2023-05-19T00:26:23;20.10;41.90
6986;DHT22;3533;51.246;6.850;2023-05-19T00:28:51;20.10;42.00
6986;DHT22;3533;51.246;6.850;2023-05-19T00:31:17;20.10;42.00
6986;DHT22;3533;51.246;6.850;2023-05-19T00:33:42;20.10;42.10
6986;DHT22;3533;51.246;6.850;2023-05-19T00:36:08;20.10;42.00
6986;DHT22;3533;51.246;6.850;2023-05-19T00:38:35;20.10;42.00
6986;DHT22;3533;51.246;6.850;2023-05-19T00:41:04;20.10;42.00
6986;DHT22;3533;51.246;6.850;2023-05-19T00:43:30;20.10;42.00
6986;DHT22;3533;51.246;6.850;2023-05-19T00:45:56;20.10;42.00
6986;DHT22;3533;51.246;6.850;2023-05-19T00:48:24;20.10;42.00
6986;DHT22;3533;51.246;6.850;2023-05-19T00:50:50;20.10;42.10
6986;DHT22;3533;51.246;6.850;2023-05-19T00:53:17;20.10;42.10
6986;DHT22;3533;51.246;6.850;2023-05-19T00:55:44;20.10;42.10
6986;DHT22;3533;51.246;6.850;2023-05-19T00:58:11;20.10;42.10
6986;DHT22;3533;51.246;6.850;2023-05-19T01:00:37;20.10;42.10
6986;DHT22;3533;51.246;6.850;2023-05-19T01:03:05;20.10;42.10
6986;DHT22;3533;51.246;6.850;2023-05-19T01:05:42;20.10;42.10
6986;DHT22;3533;51.246;6.850;2023-05-19T01:08:11;20.00;42.00
6986;DHT22;3533;51.246;6.850;2023-05-19T01:10:37;20.10;42.10
6986;DHT22;3533;51.246;6.850;2023-05-19T01:13:04;20.10;42.10
6986;DHT22;3533;51.246;6.850;2023-05-19T01:15:33;20.10;42.20
6986;DHT22;3533;51.246;6.850;2023-05-19T01:18:15;20.00;42.10
6986;DHT22;3533;51.246;6.850;2023-05-19T01:20:50;20.10;42.10
6986;DHT22;3533;51.246;6.850;2023-05-19T01:26:29;20.10;42.10
6986;DHT22;3533;51.246;6.850;2023-05-19T01:29:31;20.10;42.20
6986;DHT22;3533;51.246;6.850;2023-05-19T01:31:58;20.10;42.10
6986;DHT22;3533;51.246;6.850;2023-05-19T01:34:25;20.00;42.10
6986;DHT22;3533;51.246;6.850;2023-05-19T01:36:53;20.00;42.10
6986;DHT22;3533;51.246;6.850;2023-05-19T01:39:19;20.00;42.20
6986;DHT22;3533;51.246;6.850;2023-05-19T01:41:45;20.10;42.20
6986;DHT22;3533;51.246;6.850;2023-05-19T01:44:12;20.10;42.20
6986;DHT22;3533;51.246;6.850;2023-05-19T01:46:38;20.00;42.20
6986;DHT22;3533;51.246;6.850;2023-05-19T01:49:05;20.00;42.90
6986;DHT22;3533;51.246;6.850;2023-05-19T01:51:31;20.00;42.20
6986;DHT22;3533;51.246;6.850;2023-05-19T01:53:56;20.00;42.20
6986;DHT22;3533;51.246;6.850;2023-05-19T01:56:40;20.00;42.20
6986;DHT22;3533;51.246;6.850;2023-05-19T01:59:19;20.00;42.20
6986;DHT22;3533;51.246;6.850;2023-05-19T02:01:53;20.00;42.20
6986;DHT22;3533;51.246;6.850;2023-05-19T02:04:49;20.00;42.30
6986;DHT22;3533;51.246;6.850;2023-05-19T02:10:00;20.00;42.20
6986;DHT22;3533;51.246;6.850;2023-05-19T02:12:33;20.00;42.20
6986;DHT22;3533;51.246;6.850;2023-05-19T02:15:17;20.00;42.30
6986;DHT22;3533;51.246;6.850;2023-05-19T02:17:47;20.00;42.20
6986;DHT22;3533;51.246;6.850;2023-05-19T02:20:16;20.00;42.30
6986;DHT22;3533;51.246;6.850;2023-05-19T02:22:42;20.00;42.30
6986;DHT22;3533;51.246;6.850;2023-05-19T02:25:09;20.00;42.30
6986;DHT22;3533;51.246;6.850;2023-05-19T02:27:36;20.00;42.20
6986;DHT22;3533;51.246;6.850;2023-05-19T02:30:03;20.00;43.10
6986;DHT22;3533;51.246;6.850;2023-05-19T02:32:28;20.00;42.30
6986;DHT22;3533;51.246;6.850;2023-05-19T02:34:54;20.00;42.30
6986;DHT22;3533;51.246;6.850;2023-05-19T02:37:21;20.00;42.30
6986;DHT22;3533;51.246;6.850;2023-05-19T02:39:48;20.00;42.30
6986;DHT22;3533;51.246;6.850;2023-05-19T02:42:13;20.00;42.30
6986;DHT22;3533;51.246;6.850;2023-05-19T02:44:42;20.00;42.30
6986;DHT22;3533;51.246;6.850;2023-05-19T02:47:07;20.00;42.40
6986;DHT22;3533;51.246;6.850;2023-05-19T02:49:33;20.00;42.30
6986;DHT22;3533;51.246;6.850;2023-05-19T02:52:02;20.00;42.40
6986;DHT22;3533;51.246;6.850;2023-05-19T02:54:32;20.00;42.30
6986;DHT22;3533;51.246;6.850;2023-05-19T02:56:58;20.00;42.30
6986;DHT22;3533;51.246;6.850;2023-05-19T02:59:24;20.00;42.30
6986;DHT22;3533;51.246;6.850;2023-05-19T03:01:54;20.00;42.40
6986;DHT22;3533;51.246;6.850;2023-05-19T03:04:20;20.00;42.40
6986;DHT22;3533;51.246;6.850;2023-05-19T03:06:45;20.00;42.40
6986;DHT22;3533;51.246;6.850;2023-05-19T03:09:12;20.00;42.40
6986;DHT22;3533;51.246;6.850;2023-05-19T03:11:38;20.00;42.40
6986;DHT22;3533;51.246;6.850;2023-05-19T03:14:04;20.00;42.40
6986;DHT22;3533;51.246;6.850;2023-05-19T03:16:29;20.00;42.40
6986;DHT22;3533;51.246;6.850;2023-05-19T03:18:55;20.00;42.40
6986;DHT22;3533;51.246;6.850;2023-05-19T03:21:21;20.00;42.40
6986;DHT22;3533;51.246;6.850;2023-05-19T03:23:47;20.00;42.40
6986;DHT22;3533;51.246;6.850;2023-05-19T03:26:12;20.00;42.40
6986;DHT22;3533;51.246;6.850;2023-05-19T03:28:38;20.00;42.50
6986;DHT22;3533;51.246;6.850;2023-05-19T03:31:03;20.00;42.40
6986;DHT22;3533;51.246;6.850;2023-05-19T03:33:29;20.00;42.40
6986;DHT22;3533;51.246;6.850;2023-05-19T03:35:57;20.00;42.40
6986;DHT22;3533;51.246;6.850;2023-05-19T03:38:23;20.00;42.40
6986;DHT22;3533;51.246;6.850;2023-05-19T03:40:49;20.00;42.40
6986;DHT22;3533;51.246;6.850;2023-05-19T03:43:15;20.00;42.40
6986;DHT22;3533;51.246;6.850;2023-05-19T03:45:42;20.00;42.40
6986;DHT22;3533;51.246;6.850;2023-05-19T03:48:07;20.00;42.50
6986;DHT22;3533;51.246;6.850;2023-05-19T03:50:33;20.00;42.40
6986;DHT22;3533;51.246;6.850;2023-05-19T03:52:59;20.00;42.40
6986;DHT22;3533;51.246;6.850;2023-05-19T03:55:25;20.00;42.50
6986;DHT22;3533;51.246;6.850;2023-05-19T03:57:51;20.00;42.50
6986;DHT22;3533;51.246;6.850;2023-05-19T04:00:17;20.00;42.50
6986;DHT22;3533;51.246;6.850;2023-05-19T04:02:43;20.00;42.40
6986;DHT22;3533;51.246;6.850;2023-05-19T04:05:09;20.00;42.50
6986;DHT22;3533;51.246;6.850;2023-05-19T04:07:34;20.00;42.50
6986;DHT22;3533;51.246;6.850;2023-05-19T04:10:03;20.00;42.50
6986;DHT22;3533;51.246;6.850;2023-05-19T04:12:29;20.00;42.50
6986;DHT22;3533;51.246;6.850;2023-05-19T04:14:54;20.00;42.50
6986;DHT22;3533;51.246;6.850;2023-05-19T04:17:20;20.00;42.50
6986;DHT22;3533;51.246;6.850;2023-05-19T04:19:47;20.00;42.50
6986;DHT22;3533;51.246;6.850;2023-05-19T04:22:13;20.00;42.50
6986;DHT22;3533;51.246;6.850;2023-05-19T04:24:39;20.00;42.40
6986;DHT22;3533;51.246;6.850;2023-05-19T04:27:04;20.00;42.30
6986;DHT22;3533;51.246;6.850;2023-05-19T04:29:36;20.00;42.20
6986;DHT22;3533;51.246;6.850;2023-05-19T04:32:02;20.00;42.20
6986;DHT22;3533;51.246;6.850;2023-05-19T04:34:34;20.00;42.30
6986;DHT22;3533;51.246;6.850;2023-05-19T04:37:01;20.00;42.30
6986;DHT22;3533;51.246;6.850;2023-05-19T04:39:26;20.00;42.30
6986;DHT22;3533;51.246;6.850;2023-05-19T04:41:52;20.00;42.40
6986;DHT22;3533;51.246;6.850;2023-05-19T04:44:20;20.00;42.40
6986;DHT22;3533;51.246;6.850;2023-05-19T04:46:46;20.00;42.40
6986;DHT22;3533;51.246;6.850;2023-05-19T04:49:12;20.00;42.40
6986;DHT22;3533;51.246;6.850;2023-05-19T04:51:39;20.00;42.40
6986;DHT22;3533;51.246;6.850;2023-05-19T04:54:06;20.00;42.50
6986;DHT22;3533;51.246;6.850;2023-05-19T04:56:32;20.00;42.40
6986;DHT22;3533;51.246;6.850;2023-05-19T04:58:58;20.00;42.40
6986;DHT22;3533;51.246;6.850;2023-05-19T05:01:23;20.00;42.50
6986;DHT22;3533;51.246;6.850;2023-05-19T05:03:51;20.00;42.50
6986;DHT22;3533;51.246;6.850;2023-05-19T05:06:22;20.00;42.40
6986;DHT22;3533;51.246;6.850;2023-05-19T05:08:48;20.00;42.40
6986;DHT22;3533;51.246;6.850;2023-05-19T05:11:14;20.00;42.40
6986;DHT22;3533;51.246;6.850;2023-05-19T05:13:40;20.00;42.40
6986;DHT22;3533;51.246;6.850;2023-05-19T05:16:06;20.00;42.40
6986;DHT22;3533;51.246;6.850;2023-05-19T05:18:33;20.00;42.40
6986;DHT22;3533;51.246;6.850;2023-05-19T05:20:59;20.00;42.40
6986;DHT22;3533;51.246;6.850;2023-05-19T05:23:25;20.00;42.40
6986;DHT22;3533;51.246;6.850;2023-05-19T05:25:51;20.00;42.40
6986;DHT22;3533;51.246;6.850;2023-05-19T05:28:17;20.00;42.40
6986;DHT22;3533;51.246;6.850;2023-05-19T05:30:43;20.00;42.40
6986;DHT22;3533;51.246;6.850;2023-05-19T05:33:09;20.00;42.40
6986;DHT22;3533;51.246;6.850;2023-05-19T05:35:36;20.10;42.50
6986;DHT22;3533;51.246;6.850;2023-05-19T05:38:01;20.00;42.40
6986;DHT22;3533;51.246;6.850;2023-05-19T05:40:27;20.00;42.40
6986;DHT22;3533;51.246;6.850;2023-05-19T05:42:53;20.00;42.40
6986;DHT22;3533;51.246;6.850;2023-05-19T05:45:26;20.00;42.40
6986;DHT22;3533;51.246;6.850;2023-05-19T05:47:52;20.00;42.40
6986;DHT22;3533;51.246;6.850;2023-05-19T05:50:18;20.00;42.40
6986;DHT22;3533;51.246;6.850;2023-05-19T05:52:45;20.00;42.40
6986;DHT22;3533;51.246;6.850;2023-05-19T05:55:12;20.00;42.50
6986;DHT22;3533;51.246;6.850;2023-05-19T05:57:38;20.00;42.40
6986;DHT22;3533;51.246;6.850;2023-05-19T06:00:06;20.00;42.40
6986;DHT22;3533;51.246;6.850;2023-05-19T06:02:41;20.00;42.40
6986;DHT22;3533;51.246;6.850;2023-05-19T06:05:08;20.00;42.40
6986;DHT22;3533;51.246;6.850;2023-05-19T06:07:37;20.00;42.40
6986;DHT22;3533;51.246;6.850;2023-05-19T06:10:03;20.10;42.50
6986;DHT22;3533;51.246;6.850;2023-05-19T06:12:29;20.00;42.40
6986;DHT22;3533;51.246;6.850;2023-05-19T06:14:54;20.10;42.50
6986;DHT22;3533;51.246;6.850;2023-05-19T06:17:20;20.00;42.40
6986;DHT22;3533;51.246;6.850;2023-05-19T06:19:45;20.00;42.40
6986;DHT22;3533;51.246;6.850;2023-05-19T06:22:11;20.00;42.40
6986;DHT22;3533;51.246;6.850;2023-05-19T06:24:36;20.00;42.40
6986;DHT22;3533;51.246;6.850;2023-05-19T06:27:02;20.00;42.40
6986;DHT22;3533;51.246;6.850;2023-05-19T06:29:28;20.00;42.30
6986;DHT22;3533;51.246;6.850;2023-05-19T06:31:53;20.10;42.50
6986;DHT22;3533;51.246;6.850;2023-05-19T06:34:22;20.10;42.50
6986;DHT22;3533;51.246;6.850;2023-05-19T06:36:47;20.10;42.40
6986;DHT22;3533;51.246;6.850;2023-05-19T06:39:13;20.10;43.10
6986;DHT22;3533;51.246;6.850;2023-05-19T06:41:39;20.10;42.40
6986;DHT22;3533;51.246;6.850;2023-05-19T06:44:06;20.10;42.40
6986;DHT22;3533;51.246;6.850;2023-05-19T06:46:32;20.10;42.40
6986;DHT22;3533;51.246;6.850;2023-05-19T06:48:58;20.10;42.30
6986;DHT22;3533;51.246;6.850;2023-05-19T06:51:23;20.00;42.30
6986;DHT22;3533;51.246;6.850;2023-05-19T06:53:49;20.00;42.30
6986;DHT22;3533;51.246;6.850;2023-05-19T06:56:14;20.10;42.40
6986;DHT22;3533;51.246;6.850;2023-05-19T06:58:41;20.10;42.30
6986;DHT22;3533;51.246;6.850;2023-05-19T07:01:07;20.00;42.30
6986;DHT22;3533;51.246;6.850;2023-05-19T07:03:32;20.10;42.40
6986;DHT22;3533;51.246;6.850;2023-05-19T07:05:58;20.10;42.40
6986;DHT22;3533;51.246;6.850;2023-05-19T07:08:23;20.10;42.30
6986;DHT22;3533;51.246;6.850;2023-05-19T07:10:49;20.10;42.30
6986;DHT22;3533;51.246;6.850;2023-05-19T07:13:14;20.10;42.30
6986;DHT22;3533;51.246;6.850;2023-05-19T07:15:40;20.10;42.30
6986;DHT22;3533;51.246;6.850;2023-05-19T07:18:06;20.10;42.30
6986;DHT22;3533;51.246;6.850;2023-05-19T07:20:31;20.00;42.30
6986;DHT22;3533;51.246;6.850;2023-05-19T07:22:57;20.10;42.30
6986;DHT22;3533;51.246;6.850;2023-05-19T07:25:22;20.10;42.30
6986;DHT22;3533;51.246;6.850;2023-05-19T07:27:48;20.10;42.30
6986;DHT22;3533;51.246;6.850;2023-05-19T07:30:14;20.10;42.30
6986;DHT22;3533;51.246;6.850;2023-05-19T07:32:41;20.10;42.20
6986;DHT22;3533;51.246;6.850;2023-05-19T07:35:07;20.10;42.30
6986;DHT22;3533;51.246;6.850;2023-05-19T07:37:32;20.10;42.30
6986;DHT22;3533;51.246;6.850;2023-05-19T07:39:58;20.10;42.20
6986;DHT22;3533;51.246;6.850;2023-05-19T07:42:23;20.10;42.30
6986;DHT22;3533;51.246;6.850;2023-05-19T07:44:49;20.00;42.20
6986;DHT22;3533;51.246;6.850;2023-05-19T07:47:15;20.10;42.20
6986;DHT22;3533;51.246;6.850;2023-05-19T07:49:40;20.10;42.20
6986;DHT22;3533;51.246;6.850;2023-05-19T07:52:06;20.10;42.20
6986;DHT22;3533;51.246;6.850;2023-05-19T07:54:31;20.00;42.10
6986;DHT22;3533;51.246;6.850;2023-05-19T07:56:57;20.10;42.20
6986;DHT22;3533;51.246;6.850;2023-05-19T07:59:22;20.10;42.20
6986;DHT22;3533;51.246;6.850;2023-05-19T08:01:48;20.10;42.20
6986;DHT22;3533;51.246;6.850;2023-05-19T08:04:14;20.10;42.20
6986;DHT22;3533;51.246;6.850;2023-05-19T08:06:39;20.10;42.20
6986;DHT22;3533;51.246;6.850;2023-05-19T08:09:07;20.10;42.20
6986;DHT22;3533;51.246;6.850;2023-05-19T08:11:32;20.10;42.10
6986;DHT22;3533;51.246;6.850;2023-05-19T08:13:58;20.10;42.10
6986;DHT22;3533;51.246;6.850;2023-05-19T08:16:23;20.10;42.20
6986;DHT22;3533;51.246;6.850;2023-05-19T08:18:49;20.10;42.10
6986;DHT22;3533;51.246;6.850;2023-05-19T08:21:14;20.10;42.20
6986;DHT22;3533;51.246;6.850;2023-05-19T08:23:40;20.10;42.10
6986;DHT22;3533;51.246;6.850;2023-05-19T08:26:06;20.10;42.10
6986;DHT22;3533;51.246;6.850;2023-05-19T08:28:31;20.10;42.10
6986;DHT22;3533;51.246;6.850;2023-05-19T08:30:57;20.10;42.10
6986;DHT22;3533;51.246;6.850;2023-05-19T08:33:22;20.10;42.10
6986;DHT22;3533;51.246;6.850;2023-05-19T08:35:48;20.10;42.00
6986;DHT22;3533;51.246;6.850;2023-05-19T08:38:13;20.10;42.00
6986;DHT22;3533;51.246;6.850;2023-05-19T08:40:42;20.10;42.00
6986;DHT22;3533;51.246;6.850;2023-05-19T08:43:10;20.10;42.00
6986;DHT22;3533;51.246;6.850;2023-05-19T08:45:36;20.10;42.00
6986;DHT22;3533;51.246;6.850;2023-05-19T08:48:04;20.10;41.90
6986;DHT22;3533;51.246;6.850;2023-05-19T08:50:31;20.10;41.90
6986;DHT22;3533;51.246;6.850;2023-05-19T08:53:07;20.10;41.80
6986;DHT22;3533;51.246;6.850;2023-05-19T08:56:07;20.10;41.80
6986;DHT22;3533;51.246;6.850;2023-05-19T08:58:39;20.10;41.80
6986;DHT22;3533;51.246;6.850;2023-05-19T09:01:13;20.10;41.80
6986;DHT22;3533;51.246;6.850;2023-05-19T09:03:42;20.10;41.80
6986;DHT22;3533;51.246;6.850;2023-05-19T09:06:07;20.10;41.60
6986;DHT22;3533;51.246;6.850;2023-05-19T09:08:33;20.10;41.60
6986;DHT22;3533;51.246;6.850;2023-05-19T09:10:59;20.10;41.60
6986;DHT22;3533;51.246;6.850;2023-05-19T09:13:25;20.10;41.50
6986;DHT22;3533;51.246;6.850;2023-05-19T09:15:52;20.10;41.40
6986;DHT22;3533;51.246;6.850;2023-05-19T09:18:17;20.10;41.40
6986;DHT22;3533;51.246;6.850;2023-05-19T09:20:44;20.10;41.40
6986;DHT22;3533;51.246;6.850;2023-05-19T09:23:14;20.10;41.30
6986;DHT22;3533;51.246;6.850;2023-05-19T09:25:50;20.10;41.30
6986;DHT22;3533;51.246;6.850;2023-05-19T09:28:27;20.10;41.30
6986;DHT22;3533;51.246;6.850;2023-05-19T09:31:02;20.10;41.20
6986;DHT22;3533;51.246;6.850;2023-05-19T09:33:29;20.10;41.20
6986;DHT22;3533;51.246;6.850;2023-05-19T09:35:56;20.10;41.20
6986;DHT22;3533;51.246;6.850;2023-05-19T09:38:23;20.10;41.10
6986;DHT22;3533;51.246;6.850;2023-05-19T09:40:49;20.10;41.10
6986;DHT22;3533;51.246;6.850;2023-05-19T09:43:15;20.10;41.10
6986;DHT22;3533;51.246;6.850;2023-05-19T09:45:41;20.10;41.10
6986;DHT22;3533;51.246;6.850;2023-05-19T09:48:07;20.10;41.10
6986;DHT22;3533;51.246;6.850;2023-05-19T09:50:32;20.10;41.20
6986;DHT22;3533;51.246;6.850;2023-05-19T09:52:58;20.10;41.10
6986;DHT22;3533;51.246;6.850;2023-05-19T09:55:25;20.10;41.20
6986;DHT22;3533;51.246;6.850;2023-05-19T09:57:54;20.10;41.20
6986;DHT22;3533;51.246;6.850;2023-05-19T10:00:21;20.10;41.20
6986;DHT22;3533;51.246;6.850;2023-05-19T10:02:48;20.10;41.20
6986;DHT22;3533;51.246;6.850;2023-05-19T10:05:18;20.10;41.20
6986;DHT22;3533;51.246;6.850;2023-05-19T10:07:49;20.10;41.20
6986;DHT22;3533;51.246;6.850;2023-05-19T10:10:16;20.10;41.20
6986;DHT22;3533;51.246;6.850;2023-05-19T10:12:44;20.20;41.30
6986;DHT22;3533;51.246;6.850;2023-05-19T10:15:12;20.10;41.20
6986;DHT22;3533;51.246;6.850;2023-05-19T10:17:38;20.20;41.30
6986;DHT22;3533;51.246;6.850;2023-05-19T10:20:08;20.20;41.30
6986;DHT22;3533;51.246;6.850;2023-05-19T10:22:33;20.20;41.30
6986;DHT22;3533;51.246;6.850;2023-05-19T10:24:59;20.20;41.20
6986;DHT22;3533;51.246;6.850;2023-05-19T10:27:25;20.20;41.20
6986;DHT22;3533;51.246;6.850;2023-05-19T10:29:53;20.20;41.20
6986;DHT22;3533;51.246;6.850;2023-05-19T10:32:28;20.20;41.20
6986;DHT22;3533;51.246;6.850;2023-05-19T10:35:23;20.20;41.10
6986;DHT22;3533;51.246;6.850;2023-05-19T10:41:16;20.20;41.10
6986;DHT22;3533;51.246;6.850;2023-05-19T10:44:08;20.20;41.10
6986;DHT22;3533;51.246;6.850;2023-05-19T10:46:34;20.20;41.10
6986;DHT22;3533;51.246;6.850;2023-05-19T10:48:59;20.20;41.10
6986;DHT22;3533;51.246;6.850;2023-05-19T10:51:32;20.20;41.10
6986;DHT22;3533;51.246;6.850;2023-05-19T10:54:02;20.20;41.10
6986;DHT22;3533;51.246;6.850;2023-05-19T10:56:33;20.20;41.10
6986;DHT22;3533;51.246;6.850;2023-05-19T10:59:01;20.20;41.00
6986;DHT22;3533;51.246;6.850;2023-05-19T11:01:32;20.20;41.10
6986;DHT22;3533;51.246;6.850;2023-05-19T11:04:07;20.20;41.10
6986;DHT22;3533;51.246;6.850;2023-05-19T11:06:38;20.20;41.00
6986;DHT22;3533;51.246;6.850;2023-05-19T11:11:49;20.20;41.00
6986;DHT22;3533;51.246;6.850;2023-05-19T11:14:20;20.20;41.00
6986;DHT22;3533;51.246;6.850;2023-05-19T11:16:48;20.20;41.00
6986;DHT22;3533;51.246;6.850;2023-05-19T11:19:19;20.20;41.00
6986;DHT22;3533;51.246;6.850;2023-05-19T11:21:51;20.20;41.00
6986;DHT22;3533;51.246;6.850;2023-05-19T11:27:26;20.20;41.00
6986;DHT22;3533;51.246;6.850;2023-05-19T11:29:53;20.20;41.00
6986;DHT22;3533;51.246;6.850;2023-05-19T11:32:20;20.20;41.00
6986;DHT22;3533;51.246;6.850;2023-05-19T11:34:47;20.20;41.00
6986;DHT22;3533;51.246;6.850;2023-05-19T11:37:13;20.20;41.00
6986;DHT22;3533;51.246;6.850;2023-05-19T11:39:39;20.20;41.00
6986;DHT22;3533;51.246;6.850;2023-05-19T11:42:05;20.20;41.00
6986;DHT22;3533;51.246;6.850;2023-05-19T11:44:32;20.20;41.00
6986;DHT22;3533;51.246;6.850;2023-05-19T11:47:00;20.20;41.10
6986;DHT22;3533;51.246;6.850;2023-05-19T11:49:27;20.20;41.10
6986;DHT22;3533;51.246;6.850;2023-05-19T11:51:53;20.20;41.00
6986;DHT22;3533;51.246;6.850;2023-05-19T11:54:19;20.20;41.00
6986;DHT22;3533;51.246;6.850;2023-05-19T11:56:45;20.20;41.00
6986;DHT22;3533;51.246;6.850;2023-05-19T11:59:11;20.20;41.10
6986;DHT22;3533;51.246;6.850;2023-05-19T12:01:37;20.20;41.10
6986;DHT22;3533;51.246;6.850;2023-05-19T12:04:07;20.20;41.10
6986;DHT22;3533;51.246;6.850;2023-05-19T12:06:34;20.20;41.00
6986;DHT22;3533;51.246;6.850;2023-05-19T12:09:00;20.20;41.00
6986;DHT22;3533;51.246;6.850;2023-05-19T12:11:27;20.20;41.00
6986;DHT22;3533;51.246;6.850;2023-05-19T12:13:59;20.20;41.00
6986;DHT22;3533;51.246;6.850;2023-05-19T12:16:32;20.20;41.00
6986;DHT22;3533;51.246;6.850;2023-05-19T12:18:58;20.20;41.10
6986;DHT22;3533;51.246;6.850;2023-05-19T12:21:24;20.20;41.00
6986;DHT22;3533;51.246;6.850;2023-05-19T12:23:50;20.20;41.00
6986;DHT22;3533;51.246;6.850;2023-05-19T12:26:15;20.20;41.10
6986;DHT22;3533;51.246;6.850;2023-05-19T12:28:44;20.20;41.10
6986;DHT22;3533;51.246;6.850;2023-05-19T12:31:10;20.20;41.10
6986;DHT22;3533;51.246;6.850;2023-05-19T12:33:36;20.20;41.10
6986;DHT22;3533;51.246;6.850;2023-05-19T12:36:02;20.20;41.10
6986;DHT22;3533;51.246;6.850;2023-05-19T12:38:28;20.20;41.90
6986;DHT22;3533;51.246;6.850;2023-05-19T12:40:57;20.20;41.10
6986;DHT22;3533;51.246;6.850;2023-05-19T12:43:24;20.20;41.10
6986;DHT22;3533;51.246;6.850;2023-05-19T12:45:50;20.20;41.00
6986;DHT22;3533;51.246;6.850;2023-05-19T12:48:16;20.20;41.10
6986;DHT22;3533;51.246;6.850;2023-05-19T12:50:43;20.20;41.10
6986;DHT22;3533;51.246;6.850;2023-05-19T12:53:12;20.20;41.10
6986;DHT22;3533;51.246;6.850;2023-05-19T12:55:42;20.20;41.10
6986;DHT22;3533;51.246;6.850;2023-05-19T12:58:08;20.20;41.10
6986;DHT22;3533;51.246;6.850;2023-05-19T13:00:43;20.20;41.10
6986;DHT22;3533;51.246;6.850;2023-05-19T13:03:16;20.20;41.10
6986;DHT22;3533;51.246;6.850;2023-05-19T13:05:45;20.20;41.90
6986;DHT22;3533;51.246;6.850;2023-05-19T13:08:21;20.20;41.10
6986;DHT22;3533;51.246;6.850;2023-05-19T13:10:48;20.20;41.10
6986;DHT22;3533;51.246;6.850;2023-05-19T13:13:14;20.20;41.10
6986;DHT22;3533;51.246;6.850;2023-05-19T13:15:41;20.20;41.10
6986;DHT22;3533;51.246;6.850;2023-05-19T13:18:08;20.20;41.10
6986;DHT22;3533;51.246;6.850;2023-05-19T13:20:34;20.20;41.20
6986;DHT22;3533;51.246;6.850;2023-05-19T13:23:00;20.20;41.20
6986;DHT22;3533;51.246;6.850;2023-05-19T13:25:26;20.20;41.10
6986;DHT22;3533;51.246;6.850;2023-05-19T13:27:53;20.20;41.20
6986;DHT22;3533;51.246;6.850;2023-05-19T13:30:19;20.20;41.20
6986;DHT22;3533;51.246;6.850;2023-05-19T13:32:45;20.20;41.20
6986;DHT22;3533;51.246;6.850;2023-05-19T13:35:12;20.30;41.30
6986;DHT22;3533;51.246;6.850;2023-05-19T13:37:38;20.20;41.20
6986;DHT22;3533;51.246;6.850;2023-05-19T13:40:05;20.20;41.20
6986;DHT22;3533;51.246;6.850;2023-05-19T13:42:31;20.30;41.30
6986;DHT22;3533;51.246;6.850;2023-05-19T13:44:57;20.20;41.20
6986;DHT22;3533;51.246;6.850;2023-05-19T13:47:23;20.30;41.30
6986;DHT22;3533;51.246;6.850;2023-05-19T13:49:49;20.30;41.30
6986;DHT22;3533;51.246;6.850;2023-05-19T13:52:14;20.30;41.40
6986;DHT22;3533;51.246;6.850;2023-05-19T13:54:40;20.20;41.20
6986;DHT22;3533;51.246;6.850;2023-05-19T13:57:06;20.20;41.20
6986;DHT22;3533;51.246;6.850;2023-05-19T13:59:31;20.20;41.30
6986;DHT22;3533;51.246;6.850;2023-05-19T14:01:57;20.30;41.30
6986;DHT22;3533;51.246;6.850;2023-05-19T14:04:23;20.30;41.40
6986;DHT22;3533;51.246;6.850;2023-05-19T14:06:49;20.30;41.30
6986;DHT22;3533;51.246;6.850;2023-05-19T14:09:15;20.30;41.30
6986;DHT22;3533;51.246;6.850;2023-05-19T14:11:41;20.20;41.20
6986;DHT22;3533;51.246;6.850;2023-05-19T14:14:07;20.30;41.40
6986;DHT22;3533;51.246;6.850;2023-05-19T14:16:32;20.20;41.20
6986;DHT22;3533;51.246;6.850;2023-05-19T14:18:58;20.20;41.30
6986;DHT22;3533;51.246;6.850;2023-05-19T14:21:24;20.20;41.20
6986;DHT22;3533;51.246;6.850;2023-05-19T14:23:49;20.30;41.40
6986;DHT22;3533;51.246;6.850;2023-05-19T14:26:16;20.20;41.30
6986;DHT22;3533;51.246;6.850;2023-05-19T14:28:42;20.20;41.20
6986;DHT22;3533;51.246;6.850;2023-05-19T14:31:11;20.20;41.30
6986;DHT22;3533;51.246;6.850;2023-05-19T14:33:37;20.20;41.30
6986;DHT22;3533;51.246;6.850;2023-05-19T14:36:02;20.30;41.40
6986;DHT22;3533;51.246;6.850;2023-05-19T14:38:29;20.20;41.30
6986;DHT22;3533;51.246;6.850;2023-05-19T14:40:55;20.20;41.30
6986;DHT22;3533;51.246;6.850;2023-05-19T14:43:20;20.20;41.30
6986;DHT22;3533;51.246;6.850;2023-05-19T14:45:46;20.20;41.30
6986;DHT22;3533;51.246;6.850;2023-05-19T14:48:11;20.30;41.40
6986;DHT22;3533;51.246;6.850;2023-05-19T14:50:37;20.20;41.30
6986;DHT22;3533;51.246;6.850;2023-05-19T14:53:03;20.20;41.30
6986;DHT22;3533;51.246;6.850;2023-05-19T14:55:29;20.20;41.30
6986;DHT22;3533;51.246;6.850;2023-05-19T14:57:55;20.20;41.30
6986;DHT22;3533;51.246;6.850;2023-05-19T15:00:20;20.20;41.30
6986;DHT22;3533;51.246;6.850;2023-05-19T15:02:46;20.30;41.40
6986;DHT22;3533;51.246;6.850;2023-05-19T15:05:12;20.20;41.30
6986;DHT22;3533;51.246;6.850;2023-05-19T15:07:38;20.20;41.30
6986;DHT22;3533;51.246;6.850;2023-05-19T15:10:04;20.20;41.30
6986;DHT22;3533;51.246;6.850;2023-05-19T15:12:29;20.20;41.40
6986;DHT22;3533;51.246;6.850;2023-05-19T15:14:55;20.20;41.30
6986;DHT22;3533;51.246;6.850;2023-05-19T15:17:20;20.20;41.30
6986;DHT22;3533;51.246;6.850;2023-05-19T15:19:46;20.20;41.40
6986;DHT22;3533;51.246;6.850;2023-05-19T15:22:11;20.30;41.50
6986;DHT22;3533;51.246;6.850;2023-05-19T15:24:37;20.20;41.30
6986;DHT22;3533;51.246;6.850;2023-05-19T15:27:03;20.20;41.30
6986;DHT22;3533;51.246;6.850;2023-05-19T15:29:29;20.20;41.50
6986;DHT22;3533;51.246;6.850;2023-05-19T15:31:54;20.20;41.40
6986;DHT22;3533;51.246;6.850;2023-05-19T15:34:21;20.20;41.30
6986;DHT22;3533;51.246;6.850;2023-05-19T15:36:46;20.20;41.40
6986;DHT22;3533;51.246;6.850;2023-05-19T15:39:12;20.20;41.40
6986;DHT22;3533;51.246;6.850;2023-05-19T15:41:38;20.20;41.40
6986;DHT22;3533;51.246;6.850;2023-05-19T15:44:04;20.20;41.30
6986;DHT22;3533;51.246;6.850;2023-05-19T15:46:31;20.20;41.30
6986;DHT22;3533;51.246;6.850;2023-05-19T15:48:56;20.20;41.30
6986;DHT22;3533;51.246;6.850;2023-05-19T15:51:22;20.20;41.30
6986;DHT22;3533;51.246;6.850;2023-05-19T15:53:48;20.20;41.20
6986;DHT22;3533;51.246;6.850;2023-05-19T15:56:13;20.30;41.30
6986;DHT22;3533;51.246;6.850;2023-05-19T15:58:39;20.30;41.30
6986;DHT22;3533;51.246;6.850;2023-05-19T16:01:05;20.30;41.30
6986;DHT22;3533;51.246;6.850;2023-05-19T16:03:31;20.30;41.30
6986;DHT22;3533;51.246;6.850;2023-05-19T16:05:57;20.20;41.10
6986;DHT22;3533;51.246;6.850;2023-05-19T16:08:22;20.30;41.20
6986;DHT22;3533;51.246;6.850;2023-05-19T16:10:48;20.20;41.10
6986;DHT22;3533;51.246;6.850;2023-05-19T16:13:13;20.30;41.10
6986;DHT22;3533;51.246;6.850;2023-05-19T16:15:39;20.30;41.10
6986;DHT22;3533;51.246;6.850;2023-05-19T16:18:05;20.30;41.10